Time;durP1;ratioP1;P1;durP2;ratioP2;P2;SDS_P1;SDS_P2;PMS_P1;PMS_P2;Temp;Humidity;BMP_temperature;BMP_pressure;BME280_temperature;BME280_humidity;BME280_pressure;Samples;Min_cycle;Max_cycle;Signal;HPM_P1;HPM_P2
2022/06/04 00:02:00;;;;;;;2.03;1.93;;;24.90;42.20;;;;;;5079881;28;20490;-82
2022/06/04 00:04:28;;;;;;;2.17;2.03;;;24.90;42.10;;;;;;5080563;28;20420;-82
2022/06/04 00:06:57;;;;;;;2.50;2.30;;;24.80;42.00;;;;;;5080393;28;20491;-82
2022/06/04 00:09:25;;;;;;;2.43;2.23;;;24.80;42.20;;;;;;5080020;28;20468;-80
2022/06/04 00:17:21;;;;;;;2.47;2.37;;;24.70;42.20;;;;;;5025605;28;20487;-82
2022/06/04 00:19:49;;;;;;;2.00;1.90;;;24.70;42.10;;;;;;5080337;28;20471;-83
2022/06/04 00:22:18;;;;;;;2.27;2.17;;;24.70;42.40;;;;;;5080241;28;20503;-82
2022/06/04 00:24:46;;;;;;;2.20;2.10;;;24.70;42.30;;;;;;5079653;28;20503;-82
2022/06/04 00:27:15;;;;;;;2.20;2.03;;;24.70;42.10;;;;;;5080334;28;20515;-82
2022/06/04 00:29:43;;;;;;;2.47;2.30;;;24.70;42.20;;;;;;5080696;28;20533;-83
2022/06/04 00:32:11;;;;;;;2.53;2.33;;;24.60;42.20;;;;;;5080453;28;20440;-80
2022/06/04 00:34:39;;;;;;;2.40;2.30;;;24.60;42.50;;;;;;5080177;28;20437;-82
2022/06/04 00:37:07;;;;;;;2.27;2.17;;;24.60;42.40;;;;;;5080177;28;20496;-82
2022/06/04 00:39:36;;;;;;;2.20;2.10;;;24.60;42.30;;;;;;5079786;28;20451;-81
2022/06/04 00:42:08;;;;;;;3.23;2.37;;;24.60;42.40;;;;;;5079671;28;20493;-82
2022/06/04 00:45:24;;;;;;;2.37;2.27;;;24.50;42.40;;;;;;5079663;28;20436;-82
2022/06/04 00:47:52;;;;;;;2.53;2.37;;;24.50;42.40;;;;;;5077834;28;20463;-80
2022/06/04 00:50:21;;;;;;;2.20;2.10;;;24.50;42.60;;;;;;5079753;28;20417;-82
2022/06/04 00:52:50;;;;;;;2.20;2.10;;;24.40;42.40;;;;;;5080446;28;20436;-81
2022/06/04 00:55:19;;;;;;;2.50;2.30;;;24.40;42.80;;;;;;5079756;28;20448;-82
2022/06/04 00:58:07;;;;;;;2.63;2.37;;;24.30;42.50;;;;;;5081149;28;20416;-82
2022/06/04 01:00:36;;;;;;;2.57;2.47;;;24.40;42.60;;;;;;5079657;28;20487;-81
2022/06/04 01:03:13;;;;;;;2.47;2.27;;;24.30;42.50;;;;;;5079808;28;20471;-83
2022/06/04 01:05:49;;;;;;;2.57;2.40;;;24.30;42.50;;;;;;5079790;28;20524;-81
2022/06/04 01:08:31;;;;;;;2.40;2.30;;;24.30;42.70;;;;;;5079152;28;20412;-81
2022/06/04 01:11:03;;;;;;;3.20;2.70;;;24.30;42.70;;;;;;5080497;28;20428;-81
2022/06/04 01:13:42;;;;;;;2.93;2.73;;;24.30;42.70;;;;;;5080166;28;20469;-81
2022/06/04 01:16:12;;;;;;;2.40;2.30;;;24.20;42.60;;;;;;5079830;28;20532;-81
2022/06/04 01:18:48;;;;;;;2.57;2.47;;;24.20;42.70;;;;;;5080392;28;20412;-81
2022/06/04 01:21:20;;;;;;;2.30;2.20;;;24.20;42.70;;;;;;5080443;28;20519;-78
2022/06/04 01:24:25;;;;;;;2.70;2.60;;;24.20;42.80;;;;;;5080349;28;20456;-81
2022/06/04 01:27:13;;;;;;;2.47;2.27;;;24.10;42.70;;;;;;5081272;28;20415;-81
2022/06/04 01:29:45;;;;;;;2.23;2.13;;;24.10;42.90;;;;;;5080354;28;20436;-81
2022/06/04 01:32:17;;;;;;;2.43;2.33;;;24.00;42.80;;;;;;5081063;28;20446;-81
2022/06/04 01:34:47;;;;;;;2.37;2.27;;;24.00;42.70;;;;;;5081025;28;20422;-81
2022/06/04 01:37:16;;;;;;;2.57;2.37;;;24.00;42.80;;;;;;5081130;28;20816;-81
2022/06/04 01:42:33;;;;;;;3.00;2.80;;;23.90;42.90;;;;;;5084965;28;20540;-81
2022/06/04 01:45:01;;;;;;;2.30;2.20;;;23.90;43.00;;;;;;5083908;28;20455;-81
2022/06/04 01:47:29;;;;;;;2.33;2.23;;;23.90;43.10;;;;;;5083782;28;20492;-81
2022/06/04 01:49:57;;;;;;;2.40;2.30;;;23.90;43.00;;;;;;5084974;28;20404;-80
2022/06/04 01:52:27;;;;;;;2.47;2.37;;;23.80;43.10;;;;;;5084904;28;20446;-81
2022/06/04 01:54:58;;;;;;;2.83;2.53;;;23.90;43.00;;;;;;5084211;28;20423;-80
2022/06/04 01:57:27;;;;;;;2.40;2.30;;;23.90;43.00;;;;;;5085147;28;20484;-84
2022/06/04 01:59:58;;;;;;;2.50;2.37;;;23.80;43.00;;;;;;5085109;28;20475;-82
2022/06/04 02:02:29;;;;;;;2.30;2.20;;;23.80;43.00;;;;;;5085389;28;20446;-81
2022/06/04 02:04:58;;;;;;;2.70;2.53;;;23.80;43.10;;;;;;5084456;28;20455;-81
2022/06/04 02:07:31;;;;;;;2.57;2.37;;;23.80;43.20;;;;;;5082833;28;20495;-80
2022/06/04 02:10:02;;;;;;;2.40;2.30;;;23.80;43.10;;;;;;5082769;28;20420;-81
2022/06/04 02:12:33;;;;;;;2.90;2.80;;;23.80;42.90;;;;;;5082292;28;20471;-80
2022/06/04 02:15:04;;;;;;;2.70;2.50;;;23.70;43.20;;;;;;5082331;28;20424;-80
2022/06/04 02:17:32;;;;;;;2.90;2.80;;;23.70;43.10;;;;;;5082238;28;20412;-81
2022/06/04 02:20:00;;;;;;;2.73;2.53;;;23.70;43.30;;;;;;5082454;28;20487;-81
2022/06/04 02:22:31;;;;;;;2.97;2.73;;;23.60;43.20;;;;;;5082408;28;20493;-81
2022/06/04 02:25:00;;;;;;;2.80;2.70;;;23.60;43.30;;;;;;5082149;28;20450;-81
2022/06/04 02:27:28;;;;;;;3.43;2.60;;;23.50;43.20;;;;;;5082817;28;20436;-82
2022/06/04 02:33:52;;;;;;;2.60;2.40;;;23.50;43.20;;;;;;5084608;28;20436;-83
2022/06/04 02:36:23;;;;;;;2.50;2.40;;;23.40;43.30;;;;;;5084409;28;20510;-83
2022/06/04 02:38:56;;;;;;;2.77;2.60;;;23.50;43.30;;;;;;5084918;28;20424;-82
2022/06/04 02:41:25;;;;;;;2.53;2.43;;;23.40;43.30;;;;;;5083948;28;20572;-82
2022/06/04 02:43:55;;;;;;;2.37;2.27;;;23.40;43.40;;;;;;5084932;28;20431;-80
2022/06/04 02:46:26;;;;;;;2.73;2.63;;;23.40;43.50;;;;;;5080956;28;20533;-81
2022/06/04 02:48:59;;;;;;;2.43;2.33;;;23.30;43.30;;;;;;5083676;28;20420;-80
2022/06/04 02:51:29;;;;;;;2.67;2.47;;;23.30;43.30;;;;;;5083694;28;20448;-80
2022/06/04 02:53:57;;;;;;;2.83;2.63;;;23.30;43.40;;;;;;5082536;28;20505;-80
2022/06/04 02:56:27;;;;;;;2.67;2.47;;;23.30;43.30;;;;;;5082536;28;20432;-81
2022/06/04 02:58:58;;;;;;;2.90;2.70;;;23.30;43.20;;;;;;5084834;28;20447;-82
2022/06/04 03:01:26;;;;;;;2.63;2.53;;;23.30;43.50;;;;;;5085113;28;20470;-83
2022/06/04 03:03:55;;;;;;;2.67;2.50;;;23.30;43.30;;;;;;5085760;28;20491;-83
2022/06/04 03:06:26;;;;;;;2.63;2.53;;;23.20;43.50;;;;;;5085141;28;20423;-82
2022/06/04 03:08:54;;;;;;;2.93;2.73;;;23.20;43.60;;;;;;5085580;28;20427;-83
2022/06/04 03:11:22;;;;;;;2.73;2.50;;;23.30;43.60;;;;;;5085259;28;20488;-82
2022/06/04 03:13:50;;;;;;;2.80;2.70;;;23.20;43.40;;;;;;5084783;28;20516;-83
2022/06/04 03:16:18;;;;;;;3.00;2.80;;;23.20;43.50;;;;;;5085296;28;20440;-83
2022/06/04 03:18:47;;;;;;;2.83;2.47;;;23.10;43.50;;;;;;5085042;28;20517;-82
2022/06/04 03:21:16;;;;;;;2.83;2.63;;;23.10;43.40;;;;;;5083734;28;20468;-83
2022/06/04 03:23:44;;;;;;;2.40;2.30;;;23.10;43.50;;;;;;5083264;28;20500;-83
2022/06/04 03:26:12;;;;;;;2.40;2.30;;;23.10;43.60;;;;;;5083404;28;20442;-83
2022/06/04 03:28:40;;;;;;;2.77;2.67;;;23.10;43.70;;;;;;5084093;28;20469;-83
2022/06/04 03:31:08;;;;;;;2.83;2.63;;;23.10;43.50;;;;;;5083220;28;20534;-83
2022/06/04 03:33:36;;;;;;;2.60;2.50;;;23.10;43.60;;;;;;5083482;28;20420;-83
2022/06/04 03:36:05;;;;;;;3.00;2.80;;;23.10;43.70;;;;;;5083138;28;20495;-83
2022/06/04 03:38:34;;;;;;;2.73;2.53;;;23.10;43.80;;;;;;5084506;28;20440;-83
2022/06/04 03:41:02;;;;;;;2.80;2.60;;;23.10;43.70;;;;;;5084033;28;20556;-83
2022/06/04 03:43:30;;;;;;;3.30;2.70;;;23.10;43.70;;;;;;5083087;28;20469;-82
2022/06/04 03:45:58;;;;;;;2.67;2.57;;;23.00;43.70;;;;;;5084100;28;20416;-84
2022/06/04 03:48:27;;;;;;;2.93;2.73;;;23.10;43.70;;;;;;5083814;28;20436;-83
2022/06/04 03:50:55;;;;;;;2.73;2.63;;;23.00;43.80;;;;;;5084279;28;20463;-83
2022/06/04 03:53:23;;;;;;;2.53;2.43;;;23.00;43.80;;;;;;5083996;28;20455;-83
2022/06/04 03:55:52;;;;;;;2.57;2.47;;;23.00;43.80;;;;;;5083471;28;20435;-83
2022/06/04 03:58:20;;;;;;;2.90;2.70;;;23.00;43.60;;;;;;5083289;28;20420;-83
2022/06/04 04:00:48;;;;;;;2.43;2.33;;;23.00;43.80;;;;;;5081632;28;20467;-83
2022/06/04 04:03:18;;;;;;;2.40;2.30;;;23.00;43.70;;;;;;5082738;28;20423;-82
2022/06/04 04:05:47;;;;;;;2.40;2.30;;;23.00;43.70;;;;;;5083632;28;20424;-82
2022/06/04 04:08:15;;;;;;;4.93;2.63;;;23.00;43.70;;;;;;5083895;28;20449;-83
2022/06/04 04:10:43;;;;;;;3.27;3.07;;;23.00;43.80;;;;;;5083498;28;20478;-82
2022/06/04 04:13:13;;;;;;;2.87;2.77;;;23.00;43.70;;;;;;5082746;28;20455;-83
2022/06/04 04:15:41;;;;;;;2.27;2.17;;;23.00;43.60;;;;;;5082926;28;20405;-82
2022/06/04 04:18:09;;;;;;;2.67;2.47;;;23.00;43.70;;;;;;5082530;28;20456;-82
2022/06/04 04:20:38;;;;;;;3.00;2.80;;;23.00;43.60;;;;;;5083495;28;20488;-84
2022/06/04 04:23:07;;;;;;;2.90;2.70;;;23.00;43.40;;;;;;5083561;28;20503;-83
2022/06/04 04:25:36;;;;;;;2.60;2.50;;;22.90;43.50;;;;;;5082366;28;20463;-82
2022/06/04 04:28:05;;;;;;;2.70;2.50;;;22.90;43.50;;;;;;5082788;28;20444;-82
2022/06/04 04:30:35;;;;;;;2.83;2.63;;;22.90;43.80;;;;;;5083292;28;20515;-83
2022/06/04 04:33:03;;;;;;;3.33;3.00;;;22.90;43.40;;;;;;5083376;28;20442;-83
2022/06/04 04:35:33;;;;;;;2.93;2.80;;;22.90;43.50;;;;;;5083073;28;20503;-83
2022/06/04 04:38:01;;;;;;;2.87;2.67;;;22.90;43.60;;;;;;5083687;28;20468;-83
2022/06/04 04:40:30;;;;;;;2.67;2.47;;;22.90;43.50;;;;;;5082442;28;20416;-82
2022/06/04 04:42:58;;;;;;;2.77;2.57;;;22.90;43.50;;;;;;5082628;28;20471;-82
2022/06/04 04:45:26;;;;;;;2.70;2.60;;;22.90;43.50;;;;;;5083419;28;20453;-81
2022/06/04 04:47:56;;;;;;;3.03;2.80;;;22.90;43.30;;;;;;5083015;28;20428;-82
2022/06/04 04:50:25;;;;;;;3.50;2.60;;;22.90;43.50;;;;;;5082854;28;20443;-83
2022/06/04 04:52:53;;;;;;;2.50;2.40;;;22.90;43.50;;;;;;5083287;28;20483;-83
2022/06/04 04:55:28;;;;;;;2.40;2.20;;;22.90;43.40;;;;;;5083505;28;20423;-83
2022/06/04 04:57:56;;;;;;;2.87;2.67;;;22.90;43.40;;;;;;5082861;28;20927;-83
2022/06/04 05:00:24;;;;;;;2.97;2.77;;;22.80;43.30;;;;;;5082948;28;20436;-83
2022/06/04 05:02:52;;;;;;;3.00;2.80;;;22.90;43.40;;;;;;5083677;28;20475;-83
2022/06/04 05:05:22;;;;;;;3.00;2.80;;;22.90;43.50;;;;;;5081841;28;20445;-83
2022/06/04 05:07:50;;;;;;;2.77;2.67;;;22.90;43.40;;;;;;5081464;28;20431;-83
2022/06/04 05:10:18;;;;;;;2.60;2.50;;;22.90;43.20;;;;;;5081639;28;20451;-83
2022/06/04 05:12:46;;;;;;;2.90;2.80;;;22.90;43.40;;;;;;5082029;28;20477;-83
2022/06/04 05:15:14;;;;;;;2.43;2.30;;;22.90;43.40;;;;;;5085197;28;20520;-83
2022/06/04 05:17:42;;;;;;;2.83;2.70;;;22.90;43.20;;;;;;5085788;28;20445;-83
2022/06/04 05:20:11;;;;;;;2.50;2.40;;;22.90;43.20;;;;;;5085874;28;20436;-83
2022/06/04 05:22:41;;;;;;;2.53;2.37;;;22.90;43.10;;;;;;5085294;28;20475;-82
2022/06/04 05:25:10;;;;;;;2.90;2.70;;;22.90;43.30;;;;;;5085087;28;20504;-85
2022/06/04 05:27:38;;;;;;;3.07;2.90;;;22.90;43.40;;;;;;5086678;28;20420;-83
2022/06/04 05:30:07;;;;;;;2.77;2.57;;;22.90;43.20;;;;;;5086746;28;20440;-83
2022/06/04 05:32:35;;;;;;;2.70;2.60;;;22.80;43.20;;;;;;5084646;28;20461;-83
2022/06/04 05:35:03;;;;;;;2.73;2.53;;;22.90;43.40;;;;;;5085817;28;20441;-83
2022/06/04 05:37:31;;;;;;;2.60;2.40;;;22.90;43.20;;;;;;5085650;28;20511;-83
2022/06/04 05:40:05;;;;;;;2.80;2.60;;;22.90;43.40;;;;;;5086349;28;20449;-84
2022/06/04 05:42:33;;;;;;;3.37;3.10;;;22.90;43.20;;;;;;5085906;28;20474;-82
2022/06/04 05:45:01;;;;;;;2.80;2.60;;;22.90;43.30;;;;;;5086352;28;20404;-84
2022/06/04 05:47:29;;;;;;;2.80;2.60;;;22.90;43.00;;;;;;5085525;28;20446;-83
2022/06/04 05:49:57;;;;;;;2.63;2.53;;;22.90;43.10;;;;;;5086165;28;20469;-83
2022/06/04 05:52:25;;;;;;;2.53;2.43;;;22.90;43.10;;;;;;5086169;28;20436;-83
2022/06/04 05:54:53;;;;;;;2.83;2.70;;;22.90;43.00;;;;;;5086398;28;20444;-83
2022/06/04 05:57:22;;;;;;;2.90;2.70;;;22.90;43.30;;;;;;5085791;28;20507;-82
2022/06/04 05:59:50;;;;;;;2.80;2.70;;;23.00;43.20;;;;;;5085933;28;20436;-83
2022/06/04 06:02:18;;;;;;;2.60;2.50;;;23.00;43.10;;;;;;5085171;28;20478;-84
2022/06/04 06:04:46;;;;;;;2.70;2.60;;;23.00;43.10;;;;;;5087365;28;20488;-83
2022/06/04 06:07:14;;;;;;;2.60;2.50;;;23.00;43.30;;;;;;5085971;28;20434;-82
2022/06/04 06:09:42;;;;;;;3.10;2.80;;;23.00;43.20;;;;;;5086489;28;20462;-83
2022/06/04 06:12:11;;;;;;;2.73;2.63;;;23.00;43.20;;;;;;5086743;28;20475;-83
2022/06/04 06:14:41;;;;;;;3.03;2.73;;;23.00;43.20;;;;;;5086419;28;20444;-83
2022/06/04 06:17:09;;;;;;;2.80;2.70;;;23.00;43.30;;;;;;5086066;28;20441;-81
2022/06/04 06:19:37;;;;;;;3.17;2.90;;;23.00;43.30;;;;;;5085514;28;20453;-83
2022/06/04 06:22:05;;;;;;;2.87;2.67;;;23.00;43.30;;;;;;5085118;28;20466;-83
2022/06/04 06:24:33;;;;;;;2.67;2.57;;;23.10;43.30;;;;;;5084060;28;20427;-82
2022/06/04 06:27:02;;;;;;;2.70;2.50;;;23.10;43.30;;;;;;5084253;28;20416;-83
2022/06/04 06:29:31;;;;;;;2.70;2.60;;;23.10;43.30;;;;;;5085269;28;20446;-83
2022/06/04 06:32:01;;;;;;;2.67;2.57;;;23.10;43.40;;;;;;5084628;28;20460;-82
2022/06/04 06:34:29;;;;;;;2.90;2.80;;;23.10;43.60;;;;;;5086162;28;20416;-83
2022/06/04 06:36:57;;;;;;;2.67;2.57;;;23.10;43.50;;;;;;5085133;28;20477;-82
2022/06/04 06:39:25;;;;;;;2.97;2.87;;;23.10;43.50;;;;;;5086233;28;20422;-83
2022/06/04 06:41:53;;;;;;;2.83;2.70;;;23.20;43.50;;;;;;5085125;28;20475;-83
2022/06/04 06:44:22;;;;;;;2.93;2.83;;;23.20;43.60;;;;;;5084675;28;20501;-84
2022/06/04 06:46:54;;;;;;;2.83;2.70;;;23.30;43.30;;;;;;5085065;28;20460;-83
2022/06/04 06:49:24;;;;;;;2.73;2.63;;;23.30;43.20;;;;;;5084856;28;20454;-83
2022/06/04 06:51:54;;;;;;;2.87;2.67;;;23.30;43.30;;;;;;5083838;28;20444;-80
2022/06/04 06:54:24;;;;;;;2.97;2.83;;;23.40;43.20;;;;;;5084363;28;20421;-83
2022/06/04 06:56:52;;;;;;;3.10;2.90;;;23.40;43.50;;;;;;5084042;28;20461;-83
2022/06/04 06:59:20;;;;;;;2.73;2.63;;;23.40;43.10;;;;;;5085717;28;20433;-83
2022/06/04 07:01:48;;;;;;;2.90;2.80;;;23.50;43.20;;;;;;5084726;28;20467;-85
2022/06/04 07:04:16;;;;;;;2.67;2.57;;;23.50;43.10;;;;;;5084857;28;20440;-85
2022/06/04 07:06:46;;;;;;;2.70;2.60;;;23.50;43.20;;;;;;5083980;28;20408;-83
2022/06/04 07:09:16;;;;;;;4.50;2.80;;;23.60;43.00;;;;;;5084060;28;20447;-80
2022/06/04 07:11:44;;;;;;;2.70;2.60;;;23.70;43.10;;;;;;5082939;28;20428;-82
2022/06/04 07:14:12;;;;;;;3.47;3.17;;;23.80;42.90;;;;;;5084167;28;20541;-83
2022/06/04 07:16:40;;;;;;;3.20;3.00;;;23.80;43.00;;;;;;5084787;28;20436;-82
2022/06/04 07:19:08;;;;;;;2.60;2.50;;;23.80;42.90;;;;;;5083159;28;20428;-83
2022/06/04 07:21:37;;;;;;;3.00;2.80;;;23.90;42.90;;;;;;5082865;28;20440;-83
2022/06/04 07:24:06;;;;;;;2.60;2.50;;;23.90;42.80;;;;;;5082409;28;20508;-81
2022/06/04 07:26:34;;;;;;;2.80;2.70;;;24.00;43.00;;;;;;5081424;28;20472;-83
2022/06/04 07:29:03;;;;;;;2.50;2.40;;;24.10;43.00;;;;;;5082432;28;20527;-82
2022/06/04 07:31:31;;;;;;;2.83;2.73;;;24.20;42.90;;;;;;5080448;28;20436;-82
2022/06/04 07:33:59;;;;;;;2.70;2.60;;;24.30;42.90;;;;;;5081638;28;20434;-85
2022/06/04 07:36:28;;;;;;;3.13;3.03;;;24.30;42.60;;;;;;5082075;28;21014;-83
2022/06/04 07:38:56;;;;;;;2.80;2.70;;;24.40;42.80;;;;;;5081855;28;20432;-81
2022/06/04 07:41:27;;;;;;;2.80;2.70;;;24.40;42.70;;;;;;5081480;28;20496;-83
2022/06/04 07:43:55;;;;;;;2.80;2.70;;;24.40;42.60;;;;;;5082517;28;20467;-83
2022/06/04 07:46:23;;;;;;;2.93;2.73;;;24.60;42.80;;;;;;5082025;28;20466;-83
2022/06/04 07:48:51;;;;;;;3.57;2.73;;;24.60;42.60;;;;;;5083140;28;20442;-82
2022/06/04 07:51:19;;;;;;;3.10;2.90;;;24.70;42.50;;;;;;5083266;28;20492;-84
2022/06/04 07:53:47;;;;;;;3.13;2.87;;;24.80;42.50;;;;;;5082818;28;20439;-83
2022/06/04 07:56:15;;;;;;;3.17;2.90;;;24.90;42.40;;;;;;5082819;28;20450;-83
2022/06/04 07:58:45;;;;;;;3.40;3.20;;;25.00;42.40;;;;;;5082598;28;20408;-83
2022/06/04 08:01:14;;;;;;;2.90;2.80;;;25.00;42.10;;;;;;5082514;28;20463;-84
2022/06/04 08:03:43;;;;;;;2.67;2.57;;;25.10;42.20;;;;;;5082615;28;20471;-83
2022/06/04 08:06:13;;;;;;;3.03;2.83;;;25.20;42.00;;;;;;5082698;28;20476;-82
2022/06/04 08:08:41;;;;;;;2.80;2.70;;;25.30;42.00;;;;;;5082339;28;20923;-81
2022/06/04 08:13:53;;;;;;;2.70;2.60;;;25.40;41.80;;;;;;5081894;28;20967;-83
2022/06/04 08:16:21;;;;;;;2.80;2.70;;;25.50;42.00;;;;;;5081976;28;20449;-83
2022/06/04 08:18:49;;;;;;;2.90;2.80;;;25.70;41.80;;;;;;5082163;28;20453;-83
2022/06/04 08:21:17;;;;;;;2.67;2.57;;;25.70;41.70;;;;;;5082229;28;20492;-83
2022/06/04 08:23:45;;;;;;;3.07;2.90;;;25.70;41.60;;;;;;5081336;28;20532;-83
2022/06/04 08:26:13;;;;;;;2.83;2.73;;;25.80;41.60;;;;;;5082178;28;20449;-83
2022/06/04 08:28:41;;;;;;;2.60;2.50;;;26.00;41.50;;;;;;5080609;28;20427;-83
2022/06/04 08:31:12;;;;;;;2.63;2.53;;;26.00;41.40;;;;;;5080975;28;20492;-81
2022/06/04 08:33:40;;;;;;;2.57;2.47;;;26.10;41.30;;;;;;5081092;28;20928;-84
2022/06/04 08:36:09;;;;;;;2.70;2.60;;;26.20;41.20;;;;;;5080749;28;20441;-83
2022/06/04 08:38:37;;;;;;;2.70;2.60;;;26.30;41.30;;;;;;5080869;28;20473;-82
2022/06/04 08:41:07;;;;;;;2.80;2.60;;;26.30;41.10;;;;;;5080132;28;20491;-83
2022/06/04 08:43:41;;;;;;;2.50;2.40;;;26.50;41.10;;;;;;5080408;28;20465;-82
2022/06/04 08:46:13;;;;;;;2.70;2.50;;;26.60;41.00;;;;;;5079377;28;20441;-83
2022/06/04 08:48:41;;;;;;;2.40;2.30;;;26.60;41.00;;;;;;5082451;28;20452;-82
2022/06/04 08:51:18;;;;;;;2.70;2.60;;;26.70;40.80;;;;;;5083763;28;20525;-81
2022/06/04 08:53:46;;;;;;;4.50;2.67;;;26.80;40.90;;;;;;5081533;28;20464;-82
2022/06/04 08:59:06;;;;;;;2.70;2.60;;;27.00;40.70;;;;;;5042231;28;20444;-83
2022/06/04 09:01:37;;;;;;;2.37;2.27;;;27.00;40.50;;;;;;5084090;28;20939;-83
2022/06/04 09:04:10;;;;;;;2.70;2.60;;;27.10;40.50;;;;;;5083465;28;21055;-83
2022/06/04 09:06:41;;;;;;;2.90;2.70;;;27.30;40.50;;;;;;5083607;28;20430;-83
2022/06/04 09:09:12;;;;;;;2.20;2.10;;;27.30;40.20;;;;;;5083549;28;20524;-83
2022/06/04 09:11:44;;;;;;;2.80;2.60;;;27.40;40.10;;;;;;5083822;28;20478;-83
2022/06/04 09:14:19;;;;;;;2.30;2.20;;;27.50;40.10;;;;;;5084084;28;20430;-84
2022/06/04 09:16:50;;;;;;;2.30;2.23;;;27.60;40.10;;;;;;5085012;28;20468;-83
2022/06/04 09:19:20;;;;;;;2.03;2.00;;;27.70;39.90;;;;;;5086785;28;20414;-81
2022/06/04 09:21:48;;;;;;;2.50;2.40;;;27.90;39.70;;;;;;5086081;28;20466;-83
2022/06/04 09:24:16;;;;;;;2.50;2.20;;;28.00;39.60;;;;;;5084427;28;20552;-84
2022/06/04 09:26:48;;;;;;;2.50;2.40;;;28.10;39.50;;;;;;5084369;28;20565;-84
2022/06/04 09:29:23;;;;;;;2.70;2.60;;;28.20;39.50;;;;;;5085337;28;20492;-84
2022/06/04 09:31:58;;;;;;;2.50;2.40;;;28.30;39.20;;;;;;5083259;28;20472;-85
2022/06/04 09:34:28;;;;;;;2.60;2.50;;;28.40;39.20;;;;;;5083045;28;20502;-85
2022/06/04 09:36:56;;;;;;;2.60;2.50;;;28.40;39.10;;;;;;5082783;28;20447;-83
2022/06/04 09:39:26;;;;;;;2.37;2.27;;;28.50;38.90;;;;;;5082687;28;20504;-85
2022/06/04 09:41:55;;;;;;;2.60;2.50;;;28.60;39.00;;;;;;5083183;28;20500;-84
2022/06/04 09:44:23;;;;;;;2.33;2.23;;;28.80;38.90;;;;;;5083350;28;20529;-84
2022/06/04 09:46:55;;;;;;;3.07;2.97;;;28.80;38.60;;;;;;5082635;28;20861;-84
2022/06/04 09:49:32;;;;;;;2.60;2.40;;;28.90;38.60;;;;;;5082213;28;20441;-85
2022/06/04 09:52:00;;;;;;;2.60;2.50;;;29.00;38.50;;;;;;5081993;28;20488;-83
2022/06/04 09:54:29;;;;;;;2.30;2.30;;;29.10;38.30;;;;;;5082724;28;20441;-83
2022/06/04 09:57:01;;;;;;;2.67;2.57;;;29.20;38.40;;;;;;5083963;28;20449;-84
2022/06/04 09:59:30;;;;;;;2.47;2.37;;;29.30;38.20;;;;;;5081005;28;20517;-85
2022/06/04 10:02:01;;;;;;;2.27;2.20;;;29.40;38.00;;;;;;5083971;28;20505;-84
2022/06/04 10:04:38;;;;;;;2.33;2.23;;;29.50;38.10;;;;;;5082783;28;20473;-84
2022/06/04 10:07:07;;;;;;;2.47;2.37;;;29.70;37.90;;;;;;5083003;28;20978;-84
2022/06/04 10:13:42;;;;;;;2.47;2.37;;;29.80;37.80;;;;;;5082728;28;20552;-83
2022/06/04 10:15:16;;;;;;;2.20;2.00;;;29.90;37.60;;;;;;5082496;28;20467;-84
2022/06/04 10:17:45;;;;;;;2.43;2.43;;;30.00;37.50;;;;;;5082703;28;20434;-83
2022/06/04 10:20:24;;;;;;;2.27;2.17;;;30.20;37.50;;;;;;5082510;28;20526;-84
2022/06/04 10:22:52;;;;;;;2.20;2.10;;;30.30;37.30;;;;;;5082368;28;20430;-82
2022/06/04 10:25:22;;;;;;;2.47;2.37;;;30.40;37.10;;;;;;5083312;28;20493;-84
2022/06/04 10:27:59;;;;;;;1.90;1.90;;;30.50;37.20;;;;;;5086067;28;20809;-85
2022/06/04 10:30:28;;;;;;;2.63;2.53;;;30.60;37.00;;;;;;5084802;28;20441;-84
2022/06/04 10:33:05;;;;;;;2.33;2.23;;;30.70;37.60;;;;;;5083359;28;20523;-84
2022/06/04 10:35:49;;;;;;;2.27;2.17;;;30.70;36.80;;;;;;5083023;28;20437;-84
2022/06/04 10:38:24;;;;;;;2.30;2.20;;;30.90;36.80;;;;;;5082855;28;20430;-85
2022/06/04 10:41:02;;;;;;;2.20;2.10;;;31.00;36.70;;;;;;5082644;28;20528;-84
2022/06/04 10:44:09;;;;;;;2.20;2.20;;;31.10;36.70;;;;;;5083282;28;20430;-85
2022/06/04 10:46:40;;;;;;;2.50;2.40;;;31.20;36.40;;;;;;5082827;28;20474;-84
2022/06/04 10:49:21;;;;;;;2.10;2.00;;;31.30;36.40;;;;;;5082550;28;20448;-84
2022/06/04 10:51:52;;;;;;;2.17;2.17;;;31.30;36.10;;;;;;5082199;28;20492;-84
2022/06/04 10:54:24;;;;;;;2.17;2.07;;;31.40;36.10;;;;;;5082942;28;20429;-84
2022/06/04 10:56:54;;;;;;;2.40;2.30;;;31.50;36.10;;;;;;5082379;28;20484;-84
2022/06/04 10:59:25;;;;;;;2.30;2.20;;;31.50;36.10;;;;;;5082438;28;20442;-84
2022/06/04 11:01:55;;;;;;;2.10;2.00;;;31.60;35.80;;;;;;5082649;28;20492;-85
2022/06/04 11:04:31;;;;;;;2.10;2.00;;;31.70;35.70;;;;;;5082739;28;20453;-84
2022/06/04 11:07:03;;;;;;;2.10;2.00;;;31.80;35.70;;;;;;5082392;28;20441;-85
2022/06/04 11:09:34;;;;;;;2.40;2.30;;;31.80;35.60;;;;;;5082638;28;20450;-84
2022/06/04 11:12:04;;;;;;;2.27;2.17;;;31.90;35.50;;;;;;5082547;28;20487;-84
2022/06/04 11:14:39;;;;;;;2.10;2.00;;;32.00;35.40;;;;;;5082399;28;20472;-84
2022/06/04 11:17:18;;;;;;;2.20;2.20;;;32.10;35.20;;;;;;5082068;28;20535;-84
2022/06/04 11:19:56;;;;;;;2.30;2.20;;;32.20;35.30;;;;;;5082189;28;20437;-84
2022/06/04 11:22:26;;;;;;;2.37;2.27;;;32.30;35.20;;;;;;5084044;28;20465;-85
2022/06/04 11:24:59;;;;;;;2.47;2.37;;;32.40;35.20;;;;;;5082531;28;20481;-84
2022/06/04 11:27:31;;;;;;;2.40;2.30;;;32.50;35.10;;;;;;5081921;28;20449;-84
2022/06/04 11:30:01;;;;;;;2.17;2.07;;;32.50;35.00;;;;;;5082892;28;20460;-84
2022/06/04 11:32:33;;;;;;;2.37;2.27;;;32.60;34.90;;;;;;5082596;28;20502;-84
2022/06/04 11:35:12;;;;;;;2.07;1.97;;;32.70;34.70;;;;;;5083716;28;20470;-85
2022/06/04 11:37:49;;;;;;;2.17;2.07;;;32.70;34.70;;;;;;5082228;28;20528;-84
2022/06/04 11:40:21;;;;;;;2.17;2.07;;;32.80;34.60;;;;;;5081934;28;20509;-86
2022/06/04 11:42:56;;;;;;;2.20;2.10;;;32.80;34.60;;;;;;5081955;28;20520;-85
2022/06/04 11:45:48;;;;;;;2.00;1.97;;;32.80;34.40;;;;;;5081937;28;20556;-85
2022/06/04 11:48:36;;;;;;;1.93;1.83;;;32.90;34.40;;;;;;5082155;28;20510;-85
2022/06/04 11:51:23;;;;;;;2.10;2.00;;;33.00;34.40;;;;;;5081651;28;20458;-84
2022/06/04 11:53:54;;;;;;;2.20;2.10;;;33.00;34.30;;;;;;5081951;28;20476;-85
2022/06/04 11:56:28;;;;;;;2.00;1.90;;;33.10;34.20;;;;;;5082249;28;20469;-84
2022/06/04 11:59:17;;;;;;;2.30;2.20;;;33.10;34.10;;;;;;5081705;28;20468;-84
2022/06/04 12:01:47;;;;;;;2.17;2.07;;;33.20;34.10;;;;;;5082937;28;20906;-84
2022/06/04 12:04:29;;;;;;;1.80;1.80;;;33.30;34.10;;;;;;5085990;28;20453;-85
2022/06/04 12:07:06;;;;;;;1.97;1.97;;;33.30;33.90;;;;;;5081796;28;20474;-84
2022/06/04 12:09:39;;;;;;;2.23;2.00;;;33.30;33.90;;;;;;5081893;28;20457;-85
2022/06/04 12:12:10;;;;;;;1.83;1.83;;;33.40;34.00;;;;;;5081980;28;20488;-84
2022/06/04 12:14:40;;;;;;;2.00;2.00;;;33.40;33.80;;;;;;5081609;28;20468;-85
2022/06/04 12:17:11;;;;;;;2.00;2.00;;;33.50;33.90;;;;;;5081087;28;20462;-84
2022/06/04 12:25:17;;;;;;;2.10;2.10;;;33.60;33.50;;;;;;5082404;28;20449;-85
2022/06/04 12:27:59;;;;;;;2.30;2.20;;;33.60;33.40;;;;;;5084546;28;20456;-85
2022/06/04 12:30:36;;;;;;;1.90;1.80;;;33.70;33.50;;;;;;5081725;28;20442;-85
2022/06/04 12:33:05;;;;;;;2.33;2.23;;;33.70;33.50;;;;;;5087183;28;20471;-84
2022/06/04 12:39:00;;;;;;;2.10;2.00;;;33.70;33.40;;;;;;5071771;28;20445;-85
2022/06/04 12:41:38;;;;;;;2.40;2.30;;;33.70;33.40;;;;;;5083885;28;20481;-85
2022/06/04 12:44:07;;;;;;;2.20;2.20;;;33.70;33.50;;;;;;5081122;28;20509;-85
2022/06/04 12:46:44;;;;;;;2.10;2.00;;;33.80;33.50;;;;;;5081713;28;20505;-85
2022/06/04 12:49:20;;;;;;;2.03;2.03;;;33.80;33.30;;;;;;5081039;28;20478;-86
2022/06/04 12:51:51;;;;;;;2.00;2.00;;;33.80;33.50;;;;;;5080890;28;20518;-85
2022/06/04 12:54:29;;;;;;;1.70;1.70;;;33.80;33.50;;;;;;5080973;28;20894;-85
2022/06/04 12:57:13;;;;;;;2.10;2.00;;;33.80;33.50;;;;;;5081111;28;20445;-85
2022/06/04 12:59:42;;;;;;;1.60;1.60;;;33.80;33.10;;;;;;5080372;28;20438;-85
2022/06/04 13:02:31;;;;;;;2.10;2.10;;;33.80;33.40;;;;;;5081137;28;20464;-85
2022/06/04 13:05:26;;;;;;;1.93;1.93;;;33.80;33.20;;;;;;5083540;28;20433;-85
2022/06/04 13:07:59;;;;;;;2.23;2.13;;;33.80;33.20;;;;;;5081425;28;20434;-86
2022/06/04 13:10:33;;;;;;;1.93;1.83;;;33.80;33.00;;;;;;5080609;28;20464;-85
2022/06/04 13:13:04;;;;;;;1.70;1.70;;;33.80;33.10;;;;;;5080229;28;20430;-84
2022/06/04 13:15:39;;;;;;;2.03;2.03;;;33.90;33.10;;;;;;5080704;28;20430;-85
2022/06/04 13:18:16;;;;;;;2.13;2.03;;;33.90;33.20;;;;;;5080275;28;20473;-85
2022/06/04 13:20:45;;;;;;;1.90;1.90;;;33.90;32.90;;;;;;5080793;28;20481;-86
2022/06/04 13:23:33;;;;;;;1.70;1.70;;;33.90;32.90;;;;;;5080699;28;20472;-85
2022/06/04 13:26:26;;;;;;;2.03;1.93;;;33.90;33.00;;;;;;5081598;28;20924;-85
2022/06/04 13:28:54;;;;;;;2.00;1.90;;;33.90;33.00;;;;;;5080342;28;20475;-85
2022/06/04 13:31:23;;;;;;;2.13;2.03;;;33.80;32.90;;;;;;5081226;28;20525;-85
2022/06/04 13:33:52;;;;;;;2.27;2.17;;;33.90;33.10;;;;;;5080877;28;20425;-84
2022/06/04 13:36:21;;;;;;;1.80;1.80;;;33.80;33.70;;;;;;5084113;28;20456;-85
2022/06/04 13:38:49;;;;;;;2.40;2.30;;;33.80;32.80;;;;;;5084430;28;20461;-84